createdAt,value
2019-02-27T00:02:17.619Z,23.62
2019-02-27T00:04:44.319Z,22.70
2019-02-27T00:07:10.982Z,22.05
2019-02-27T00:09:38.539Z,23.38
2019-02-27T00:12:05.257Z,23.25
2019-02-27T00:14:31.975Z,23.22
2019-02-27T00:16:58.584Z,24.27
2019-02-27T00:19:25.241Z,22.45
2019-02-27T00:21:51.965Z,23.07
2019-02-27T00:24:18.686Z,24.57
2019-02-27T00:26:45.395Z,23.98
2019-02-27T00:29:12.190Z,21.60
2019-02-27T00:31:38.821Z,23.42
2019-02-27T00:34:05.519Z,21.85
2019-02-27T00:36:32.299Z,21.80
2019-02-27T00:38:59.038Z,21.20
2019-02-27T00:41:25.743Z,21.25
2019-02-27T00:43:52.459Z,20.65
2019-02-27T00:46:19.056Z,21.17
2019-02-27T00:48:45.723Z,21.82
2019-02-27T00:51:12.911Z,19.77
2019-02-27T00:53:39.663Z,20.80
2019-02-27T00:56:06.336Z,20.23
2019-02-27T00:58:33.002Z,20.40
2019-02-27T01:01:00.631Z,21.77
2019-02-27T01:03:27.265Z,20.45
2019-02-27T01:05:53.971Z,21.80
2019-02-27T01:08:20.638Z,20.52
2019-02-27T01:10:47.430Z,21.45
2019-02-27T01:13:15.247Z,20.37
2019-02-27T01:15:44.696Z,20.90
2019-02-27T01:18:10.419Z,22.77
2019-02-27T01:20:37.192Z,21.17
2019-02-27T01:23:03.913Z,22.32
2019-02-27T01:25:30.568Z,21.55
2019-02-27T01:27:57.319Z,22.07
2019-02-27T01:30:24.332Z,23.77
2019-02-27T01:32:51.604Z,23.22
2019-02-27T01:35:19.371Z,22.58
2019-02-27T01:37:47.001Z,23.60
2019-02-27T01:40:17.430Z,23.07
2019-02-27T01:42:42.851Z,24.30
2019-02-27T01:45:12.370Z,24.15
2019-02-27T01:47:39.023Z,23.47
2019-02-27T01:50:25.560Z,24.43
2019-02-27T01:52:52.205Z,23.90
2019-02-27T01:55:21.672Z,23.52
2019-02-27T01:57:47.592Z,23.07
2019-02-27T02:00:14.728Z,23.15
2019-02-27T02:02:41.851Z,22.90
2019-02-27T02:05:08.574Z,23.02
2019-02-27T02:07:40.157Z,21.62
2019-02-27T02:10:09.475Z,22.32
2019-02-27T02:12:36.308Z,22.22
2019-02-27T02:15:18.643Z,20.62
2019-02-27T02:20:27.014Z,21.82
2019-02-27T02:23:07.722Z,19.82
2019-02-27T02:25:50.134Z,20.37
2019-02-27T02:28:32.362Z,18.95
2019-02-27T02:33:38.187Z,18.60
2019-02-27T02:36:26.891Z,18.77
2019-02-27T02:39:18.057Z,19.62
2019-02-27T02:41:55.441Z,18.10
2019-02-27T02:44:34.753Z,18.37
2019-02-27T02:47:05.096Z,19.07
2019-02-27T02:49:59.197Z,19.35
2019-02-27T02:52:32.353Z,18.15
2019-02-27T02:55:27.163Z,18.02
2019-02-27T02:58:02.891Z,18.80
2019-02-27T03:00:56.150Z,17.35
2019-02-27T03:03:36.205Z,17.82
2019-02-27T03:06:23.289Z,17.98
2019-02-27T03:09:12.248Z,18.27
2019-02-27T03:11:55.775Z,18.12
2019-02-27T03:14:28.802Z,17.48
2019-02-27T03:17:21.526Z,16.25
2019-02-27T03:20:17.603Z,17.75
2019-02-27T03:23:05.025Z,18.45
2019-02-27T03:25:53.963Z,17.45
2019-02-27T03:28:27.140Z,17.00
2019-02-27T03:31:16.031Z,17.32
2019-02-27T03:34:05.534Z,16.77
2019-02-27T03:36:45.811Z,15.00
2019-02-27T03:39:39.227Z,15.63
2019-02-27T03:42:12.262Z,15.23
2019-02-27T03:44:55.869Z,15.20
2019-02-27T03:47:26.534Z,14.55
2019-02-27T03:50:19.803Z,15.30
2019-02-27T03:52:52.834Z,14.53
2019-02-27T03:55:32.857Z,15.00
2019-02-27T03:58:26.781Z,14.75
2019-02-27T04:01:30.621Z,14.43
2019-02-27T04:03:58.965Z,13.55
2019-02-27T04:06:32.297Z,15.30
2019-02-27T04:08:59.647Z,15.35
2019-02-27T04:11:26.477Z,14.98
2019-02-27T04:13:53.177Z,14.80
2019-02-27T04:16:19.963Z,14.87
2019-02-27T04:18:46.588Z,14.65
2019-02-27T04:21:13.712Z,15.18
2019-02-27T04:23:40.435Z,15.85
2019-02-27T04:26:07.046Z,14.60
2019-02-27T04:28:33.719Z,15.55
2019-02-27T04:31:00.419Z,15.78
2019-02-27T04:33:27.042Z,17.00
2019-02-27T04:35:53.659Z,16.65
2019-02-27T04:38:20.353Z,16.40
2019-02-27T04:40:47.073Z,15.60
2019-02-27T04:43:13.766Z,14.98
2019-02-27T04:45:40.510Z,15.90
2019-02-27T04:48:07.123Z,17.02
2019-02-27T04:50:33.794Z,16.45
2019-02-27T04:53:00.451Z,16.00
2019-02-27T04:55:27.169Z,16.27
2019-02-27T04:57:53.876Z,15.83
2019-02-27T05:00:20.592Z,15.93
2019-02-27T05:02:47.189Z,16.25
2019-02-27T05:05:13.862Z,16.20
2019-02-27T05:07:40.518Z,16.62
2019-02-27T05:10:08.357Z,16.17
2019-02-27T05:12:35.070Z,16.82
2019-02-27T05:15:04.068Z,16.17
2019-02-27T05:17:30.411Z,15.30
2019-02-27T05:19:57.102Z,14.70
2019-02-27T05:22:26.182Z,15.35
2019-02-27T05:24:52.318Z,15.98
2019-02-27T05:27:18.994Z,15.48
2019-02-27T05:29:46.754Z,15.10
2019-02-27T05:32:13.449Z,15.95
2019-02-27T05:34:40.165Z,15.03
2019-02-27T05:37:06.879Z,15.45
2019-02-27T05:39:33.876Z,15.38
2019-02-27T05:42:00.957Z,15.90
2019-02-27T05:44:27.804Z,14.70
2019-02-27T05:46:54.393Z,14.85
2019-02-27T05:49:20.996Z,15.00
2019-02-27T05:51:48.763Z,14.43
2019-02-27T05:54:15.385Z,14.35
2019-02-27T05:56:41.955Z,14.83
2019-02-27T05:59:08.646Z,13.22
2019-02-27T06:01:38.013Z,12.50
2019-02-27T06:04:03.772Z,12.68
2019-02-27T06:06:30.521Z,12.80
2019-02-27T06:08:57.133Z,12.63
2019-02-27T06:11:23.725Z,12.65
2019-02-27T06:13:50.387Z,13.32
2019-02-27T06:16:17.087Z,11.25
2019-02-27T06:18:43.786Z,10.48
2019-02-27T06:21:10.473Z,11.30
2019-02-27T06:23:37.745Z,9.63
2019-02-27T06:26:05.267Z,9.08
2019-02-27T06:28:32.936Z,8.83
2019-02-27T06:31:02.535Z,11.08
2019-02-27T06:33:28.160Z,11.12
2019-02-27T06:35:54.850Z,9.95
2019-02-27T06:38:24.992Z,7.70
2019-02-27T06:40:51.959Z,6.33
2019-02-27T06:43:18.623Z,6.05
2019-02-27T06:45:46.421Z,6.53
2019-02-27T06:48:13.322Z,6.83
2019-02-27T06:50:40.065Z,6.83
2019-02-27T06:53:06.663Z,7.10
2019-02-27T06:55:33.963Z,7.20
2019-02-27T06:58:00.754Z,7.00
2019-02-27T07:00:27.407Z,5.72
2019-02-27T07:02:55.441Z,6.60
2019-02-27T07:05:22.675Z,5.53
2019-02-27T07:07:49.271Z,5.75
2019-02-27T07:10:19.630Z,5.67
2019-02-27T07:12:45.627Z,5.22
2019-02-27T07:15:20.829Z,5.15
2019-02-27T07:17:47.562Z,5.10
2019-02-27T07:20:14.975Z,5.05
2019-02-27T07:22:45.680Z,5.05
2019-02-27T07:25:14.710Z,6.28
2019-02-27T07:27:41.483Z,5.30
2019-02-27T07:30:11.310Z,5.70
2019-02-27T07:32:37.974Z,6.05
2019-02-27T07:35:07.094Z,5.30
2019-02-27T07:37:33.764Z,5.42
2019-02-27T07:40:00.375Z,6.03
2019-02-27T07:42:27.100Z,5.47
2019-02-27T07:44:55.614Z,5.80
2019-02-27T07:47:22.327Z,5.12
2019-02-27T07:49:49.021Z,5.83
2019-02-27T07:52:15.639Z,5.75
2019-02-27T07:54:42.274Z,5.37
2019-02-27T07:57:08.998Z,6.10
2019-02-27T07:59:37.973Z,5.47
2019-02-27T08:02:04.323Z,4.60
2019-02-27T08:04:31.029Z,5.15
2019-02-27T08:06:57.732Z,5.25
2019-02-27T08:09:24.413Z,6.03
2019-02-27T08:11:51.098Z,6.20
2019-02-27T08:14:17.819Z,5.92
2019-02-27T08:16:44.523Z,5.40
2019-02-27T08:19:11.546Z,6.17
2019-02-27T08:21:38.919Z,6.37
2019-02-27T08:24:07.362Z,5.80
2019-02-27T08:26:36.447Z,5.75
2019-02-27T08:29:02.631Z,6.22
2019-02-27T08:31:29.378Z,5.50
2019-02-27T08:33:55.980Z,5.50
2019-02-27T08:36:22.716Z,5.85
2019-02-27T08:38:49.403Z,5.72
2019-02-27T08:41:16.154Z,6.03
2019-02-27T08:43:42.871Z,6.03
2019-02-27T08:46:09.578Z,6.12
2019-02-27T08:48:36.276Z,6.22
2019-02-27T08:51:08.730Z,5.03
2019-02-27T08:53:35.394Z,6.45
2019-02-27T08:56:02.063Z,6.20
2019-02-27T08:58:29.611Z,5.30
2019-02-27T09:00:58.089Z,6.28
2019-02-27T09:03:24.827Z,6.03
2019-02-27T09:05:53.775Z,6.65
2019-02-27T09:08:20.236Z,6.03
2019-02-27T09:10:46.926Z,6.95
2019-02-27T09:13:13.564Z,6.25
2019-02-27T09:15:41.683Z,5.85
2019-02-27T09:18:08.533Z,6.65
2019-02-27T09:20:35.122Z,6.92
2019-02-27T09:23:01.874Z,6.25
2019-02-27T09:25:28.601Z,6.20
2019-02-27T09:27:55.219Z,5.95
2019-02-27T09:30:28.906Z,7.53
2019-02-27T09:32:51.998Z,6.28
2019-02-27T09:35:18.747Z,5.67
2019-02-27T09:37:48.384Z,7.35
2019-02-27T09:40:22.129Z,6.80
2019-02-27T09:42:50.285Z,7.17
2019-02-27T09:45:23.656Z,6.78
2019-02-27T09:47:50.343Z,6.62
2019-02-27T09:50:47.663Z,6.65
2019-02-27T09:53:11.527Z,6.37
2019-02-27T09:55:38.300Z,6.67
2019-02-27T09:58:09.899Z,7.35
2019-02-27T10:00:37.146Z,7.05
2019-02-27T10:03:04.044Z,7.00
2019-02-27T10:05:31.168Z,7.15
2019-02-27T10:07:58.870Z,6.83
2019-02-27T10:10:25.539Z,7.45
2019-02-27T10:12:52.334Z,6.70
2019-02-27T10:15:19.054Z,7.33
2019-02-27T10:17:45.750Z,6.97
2019-02-27T10:20:12.380Z,7.25
2019-02-27T10:22:39.096Z,7.22
2019-02-27T10:25:08.534Z,7.25
2019-02-27T10:27:34.459Z,6.47
2019-02-27T10:30:01.167Z,7.03
2019-02-27T10:32:27.885Z,7.50
2019-02-27T10:34:54.523Z,7.90
2019-02-27T10:37:21.360Z,7.87
2019-02-27T10:39:48.239Z,7.05
2019-02-27T10:42:14.843Z,7.67
2019-02-27T10:44:41.472Z,7.37
2019-02-27T10:47:08.265Z,7.37
2019-02-27T10:49:34.890Z,7.50
2019-02-27T10:52:01.475Z,7.37
2019-02-27T10:54:28.161Z,7.90
2019-02-27T10:56:56.348Z,7.58
2019-02-27T10:59:24.420Z,7.03
2019-02-27T11:01:51.103Z,7.20
2019-02-27T11:04:17.744Z,7.95
2019-02-27T11:06:45.185Z,7.15
2019-02-27T11:09:21.486Z,7.70
2019-02-27T11:11:48.763Z,8.18
2019-02-27T11:14:15.427Z,7.95
2019-02-27T11:16:42.118Z,8.08
2019-02-27T11:19:08.735Z,7.95
2019-02-27T11:21:35.382Z,8.18
2019-02-27T11:24:02.117Z,8.28
2019-02-27T11:26:32.971Z,7.80
2019-02-27T11:28:57.860Z,8.30
2019-02-27T11:31:24.711Z,7.12
2019-02-27T11:33:51.323Z,7.97
2019-02-27T11:36:17.988Z,8.30
2019-02-27T11:38:44.670Z,7.90
2019-02-27T11:41:15.163Z,7.87
2019-02-27T11:43:41.505Z,8.40
2019-02-27T11:46:08.297Z,7.85
2019-02-27T11:48:35.111Z,7.40
2019-02-27T11:51:01.826Z,8.28
2019-02-27T11:53:28.551Z,7.95
2019-02-27T11:55:55.160Z,8.10
2019-02-27T11:58:21.920Z,8.60
2019-02-27T12:00:48.606Z,7.00
2019-02-27T12:03:15.315Z,8.68
2019-02-27T12:05:42.008Z,8.78
2019-02-27T12:08:08.708Z,7.70
2019-02-27T12:10:35.305Z,8.03
2019-02-27T12:13:01.956Z,8.23
2019-02-27T12:15:28.659Z,7.90
2019-02-27T12:17:59.922Z,8.10
2019-02-27T12:20:23.761Z,8.33
2019-02-27T12:22:50.438Z,8.28
2019-02-27T12:25:18.826Z,8.18
2019-02-27T12:27:49.626Z,8.70
2019-02-27T12:30:18.786Z,8.20
2019-02-27T12:32:45.595Z,8.78
2019-02-27T12:35:20.849Z,7.65
2019-02-27T12:37:47.515Z,7.65
2019-02-27T12:40:16.979Z,7.92
2019-02-27T12:42:43.824Z,8.33
2019-02-27T12:45:15.632Z,7.50
2019-02-27T12:47:42.479Z,8.25
2019-02-27T12:50:12.702Z,8.05
2019-02-27T12:52:44.329Z,9.18
2019-02-27T12:55:08.415Z,8.43
2019-02-27T12:57:35.156Z,8.80
2019-02-27T13:00:02.145Z,9.00
2019-02-27T13:02:35.647Z,8.90
2019-02-27T13:04:57.971Z,8.88
2019-02-27T13:07:24.778Z,8.38
2019-02-27T13:09:51.735Z,9.45
2019-02-27T13:12:18.443Z,9.13
2019-02-27T13:14:45.108Z,8.58
2019-02-27T13:17:11.744Z,9.05
2019-02-27T13:19:39.106Z,9.08
2019-02-27T13:22:05.870Z,8.95
2019-02-27T13:24:33.575Z,8.65
2019-02-27T13:27:00.374Z,8.98
2019-02-27T13:29:27.065Z,8.28
2019-02-27T13:31:53.681Z,8.28
2019-02-27T13:34:20.337Z,8.73
2019-02-27T13:36:46.997Z,7.95
2019-02-27T13:39:13.818Z,8.15
2019-02-27T13:41:42.377Z,7.87
2019-02-27T13:44:09.136Z,8.10
2019-02-27T13:46:35.760Z,7.78
2019-02-27T13:49:02.406Z,8.18
2019-02-27T13:51:29.125Z,8.10
2019-02-27T13:54:00.293Z,7.37
2019-02-27T13:56:25.114Z,7.80
2019-02-27T13:58:52.833Z,7.60
2019-02-27T14:01:19.421Z,7.70
2019-02-27T14:03:48.382Z,8.10
2019-02-27T14:06:14.607Z,7.87
2019-02-27T14:08:41.196Z,7.53
2019-02-27T14:11:07.795Z,7.55
2019-02-27T14:13:34.495Z,7.78
2019-02-27T14:16:01.600Z,8.15
2019-02-27T14:18:28.428Z,8.00
2019-02-27T14:20:55.210Z,7.60
2019-02-27T14:23:21.897Z,8.25
2019-02-27T14:25:48.521Z,6.65
2019-02-27T14:28:15.293Z,8.25
2019-02-27T14:30:47.391Z,7.67
2019-02-27T14:33:19.588Z,7.62
2019-02-27T14:35:48.270Z,7.10
2019-02-27T14:38:14.895Z,7.53
2019-02-27T14:40:41.552Z,6.62
2019-02-27T14:43:08.252Z,7.78
2019-02-27T14:45:39.486Z,7.03
2019-02-27T14:48:03.641Z,7.47
2019-02-27T14:50:33.520Z,7.75
2019-02-27T14:52:58.841Z,7.25
2019-02-27T14:55:25.580Z,7.83
2019-02-27T14:57:52.251Z,7.55
2019-02-27T15:00:24.675Z,7.95
2019-02-27T15:02:52.151Z,7.75
2019-02-27T15:05:18.984Z,7.25
2019-02-27T15:07:45.595Z,7.78
2019-02-27T15:10:19.757Z,8.03
2019-02-27T15:12:46.531Z,7.22
2019-02-27T15:15:16.031Z,8.00
2019-02-27T15:17:42.735Z,7.37
2019-02-27T15:20:12.443Z,10.25
2019-02-27T15:22:39.151Z,9.58
2019-02-27T15:25:08.836Z,7.58
2019-02-27T15:27:35.606Z,7.35
2019-02-27T15:30:02.538Z,7.62
2019-02-27T15:32:30.280Z,8.15
2019-02-27T15:34:57.147Z,7.55
2019-02-27T15:37:23.741Z,6.70
2019-02-27T15:39:52.049Z,6.95
2019-02-27T15:42:19.000Z,7.60
2019-02-27T15:44:45.691Z,7.70
2019-02-27T15:47:12.510Z,7.45
2019-02-27T15:49:39.244Z,7.37
2019-02-27T15:52:07.050Z,7.28
2019-02-27T15:54:34.448Z,7.53
2019-02-27T15:57:01.135Z,8.40
2019-02-27T15:59:27.883Z,8.75
2019-02-27T16:01:54.654Z,9.75
2019-02-27T16:04:21.915Z,10.13
2019-02-27T16:06:51.134Z,19.42
2019-02-27T16:09:17.678Z,22.82
2019-02-27T16:11:44.305Z,24.90
2019-02-27T16:14:10.999Z,20.20
2019-02-27T16:16:37.620Z,21.42
2019-02-27T16:19:04.331Z,15.48
2019-02-27T16:21:31.004Z,9.73
2019-02-27T16:23:59.365Z,9.88
2019-02-27T16:26:29.254Z,11.38
2019-02-27T16:28:56.501Z,16.73
2019-02-27T16:31:23.234Z,22.60
2019-02-27T16:33:49.837Z,19.52
2019-02-27T16:36:16.582Z,17.42
2019-02-27T16:38:43.212Z,14.98
2019-02-27T16:41:10.115Z,12.20
2019-02-27T16:43:37.873Z,13.48
2019-02-27T16:46:08.645Z,13.68
2019-02-27T16:48:35.360Z,14.45
2019-02-27T16:51:02.227Z,14.33
2019-02-27T16:53:28.834Z,16.02
2019-02-27T16:55:55.485Z,17.02
2019-02-27T16:58:22.231Z,15.00
2019-02-27T17:00:48.851Z,15.83
2019-02-27T17:03:15.472Z,17.35
2019-02-27T17:05:43.231Z,15.75
2019-02-27T17:08:10.657Z,15.00
2019-02-27T17:10:37.999Z,16.50
2019-02-27T17:13:04.823Z,16.97
2019-02-27T17:15:34.536Z,15.35
2019-02-27T17:18:00.195Z,16.50
2019-02-27T17:20:27.647Z,18.37
2019-02-27T17:22:54.602Z,17.90
2019-02-27T17:25:21.436Z,17.50
2019-02-27T17:27:50.847Z,17.55
2019-02-27T17:30:36.630Z,18.87
2019-02-27T17:33:01.380Z,18.77
2019-02-27T17:35:29.588Z,19.67
2019-02-27T17:37:56.191Z,19.20
2019-02-27T17:40:24.728Z,20.02
2019-02-27T17:42:53.569Z,21.77
2019-02-27T17:45:21.770Z,20.57
2019-02-27T17:47:48.483Z,22.00
2019-02-27T17:50:15.790Z,21.48
2019-02-27T17:52:42.680Z,21.60
2019-02-27T17:55:11.567Z,20.68
2019-02-27T17:57:38.256Z,21.68
2019-02-27T18:00:12.879Z,20.52
2019-02-27T18:02:40.293Z,20.90
2019-02-27T18:05:08.389Z,21.25
2019-02-27T18:07:35.095Z,21.97
2019-02-27T18:10:02.364Z,20.45
2019-02-27T18:12:29.871Z,22.20
2019-02-27T18:14:56.507Z,20.80
2019-02-27T18:17:23.209Z,22.85
2019-02-27T18:19:50.200Z,23.47
2019-02-27T18:22:17.757Z,29.45
2019-02-27T18:24:44.432Z,25.45
2019-02-27T18:27:11.080Z,25.12
2019-02-27T18:29:38.296Z,27.52
2019-02-27T18:32:06.591Z,25.88
2019-02-27T18:34:34.563Z,26.42
2019-02-27T18:37:01.242Z,27.70
2019-02-27T18:39:27.904Z,26.10
2019-02-27T18:41:55.890Z,26.93
2019-02-27T18:44:22.796Z,25.50
2019-02-27T18:46:49.472Z,26.27
2019-02-27T18:49:18.535Z,26.42
2019-02-27T18:51:44.779Z,26.30
2019-02-27T18:54:11.546Z,27.42
2019-02-27T18:56:40.385Z,28.65
2019-02-27T18:59:06.795Z,27.77
2019-02-27T19:01:33.491Z,26.80
2019-02-27T19:04:01.262Z,27.05
2019-02-27T19:06:28.093Z,27.80
2019-02-27T19:08:54.807Z,27.17
2019-02-27T19:11:22.513Z,26.45
2019-02-27T19:13:49.161Z,25.72
2019-02-27T19:16:17.525Z,25.12
2019-02-27T19:18:44.484Z,24.60
2019-02-27T19:21:11.075Z,25.30
2019-02-27T19:23:37.780Z,24.20
2019-02-27T19:26:06.356Z,25.92
2019-02-27T19:28:32.966Z,27.22
2019-02-27T19:30:59.623Z,31.55
2019-02-27T19:33:26.314Z,31.97
2019-02-27T19:35:55.822Z,37.58
2019-02-27T19:38:21.547Z,31.95
2019-02-27T19:40:48.163Z,36.55
2019-02-27T19:43:14.832Z,33.60
2019-02-27T19:45:42.301Z,34.95
2019-02-27T19:48:09.207Z,32.93
2019-02-27T19:50:35.855Z,34.23
2019-02-27T19:53:05.201Z,32.65
2019-02-27T19:55:31.162Z,33.10
2019-02-27T19:57:57.823Z,32.63
2019-02-27T20:00:33.702Z,30.50
2019-02-27T20:03:01.078Z,29.80
2019-02-27T20:05:28.285Z,36.13
2019-02-27T20:07:55.182Z,33.48
2019-02-27T20:10:21.919Z,36.75
2019-02-27T20:12:52.750Z,42.17
2019-02-27T20:15:18.867Z,41.08
2019-02-27T20:17:45.520Z,41.15
2019-02-27T20:20:13.939Z,41.10
2019-02-27T20:22:41.142Z,42.35
2019-02-27T20:25:10.521Z,40.23
2019-02-27T20:27:37.261Z,38.05
2019-02-27T20:30:07.397Z,37.67
2019-02-27T20:32:34.588Z,39.53
2019-02-27T20:35:01.257Z,39.73
2019-02-27T20:37:28.019Z,37.78
2019-02-27T20:39:58.383Z,38.65
2019-02-27T20:42:23.419Z,39.60
2019-02-27T20:44:50.156Z,38.55
2019-02-27T20:47:16.792Z,38.65
2019-02-27T20:49:44.701Z,41.23
2019-02-27T20:52:15.037Z,40.92
2019-02-27T20:54:40.796Z,41.40
2019-02-27T20:57:08.940Z,40.58
2019-02-27T20:59:35.906Z,38.78
2019-02-27T21:02:02.689Z,38.73
2019-02-27T21:04:29.271Z,38.13
2019-02-27T21:06:57.052Z,38.53
2019-02-27T21:09:23.769Z,39.78
2019-02-27T21:11:51.815Z,38.17
2019-02-27T21:14:20.505Z,37.40
2019-02-27T21:16:48.133Z,37.45
2019-02-27T21:19:14.731Z,37.48
2019-02-27T21:21:41.418Z,38.58
2019-02-27T21:24:08.076Z,37.45
2019-02-27T21:26:34.804Z,37.08
2019-02-27T21:29:01.557Z,38.42
2019-02-27T21:31:28.346Z,38.28
2019-02-27T21:33:55.010Z,37.67
2019-02-27T21:36:21.738Z,39.40
2019-02-27T21:38:50.300Z,42.73
2019-02-27T21:41:17.089Z,36.20
2019-02-27T21:43:43.820Z,36.83
2019-02-27T21:46:11.728Z,35.43
2019-02-27T21:48:39.202Z,35.65
2019-02-27T21:51:05.852Z,35.25
2019-02-27T21:53:32.499Z,34.30
2019-02-27T21:55:59.298Z,34.23
2019-02-27T21:58:25.986Z,35.58
2019-02-27T22:00:52.640Z,35.45
2019-02-27T22:03:19.265Z,33.85
2019-02-27T22:05:46.584Z,34.03
2019-02-27T22:08:13.171Z,33.35
2019-02-27T22:10:39.852Z,33.18
2019-02-27T22:13:10.526Z,31.05
2019-02-27T22:15:35.103Z,31.87
2019-02-27T22:18:01.751Z,32.25
2019-02-27T22:20:28.450Z,32.30
2019-02-27T22:22:55.048Z,32.95
2019-02-27T22:25:21.777Z,34.10
2019-02-27T22:27:48.483Z,33.53
2019-02-27T22:30:17.622Z,37.20
2019-02-27T22:32:47.405Z,33.92
2019-02-27T22:35:12.811Z,33.25
2019-02-27T22:37:39.625Z,32.95
2019-02-27T22:40:09.654Z,32.58
2019-02-27T22:42:36.354Z,34.53
2019-02-27T22:45:04.942Z,33.58
2019-02-27T22:47:31.846Z,33.83
2019-02-27T22:49:58.547Z,32.75
2019-02-27T22:52:25.143Z,31.85
2019-02-27T22:54:51.928Z,30.60
2019-02-27T22:57:18.588Z,30.45
2019-02-27T22:59:45.387Z,29.95
2019-02-27T23:02:12.339Z,29.85
2019-02-27T23:04:39.037Z,30.12
2019-02-27T23:07:05.691Z,32.28
2019-02-27T23:09:32.470Z,31.73
2019-02-27T23:11:59.331Z,33.13
2019-02-27T23:14:26.048Z,32.13
2019-02-27T23:16:52.842Z,29.67
2019-02-27T23:19:19.628Z,29.77
2019-02-27T23:21:46.211Z,30.85
2019-02-27T23:24:12.865Z,31.42
2019-02-27T23:26:39.523Z,30.35
2019-02-27T23:29:06.537Z,32.63
2019-02-27T23:31:33.335Z,31.90
2019-02-27T23:33:59.994Z,32.45
2019-02-27T23:36:26.624Z,30.92
2019-02-27T23:38:53.289Z,31.80
2019-02-27T23:41:22.770Z,32.55
2019-02-27T23:43:48.623Z,31.97
2019-02-27T23:46:15.664Z,32.35
2019-02-27T23:48:43.894Z,34.83
2019-02-27T23:51:10.510Z,32.90
2019-02-27T23:53:37.189Z,35.58
2019-02-27T23:56:04.353Z,33.30
2019-02-27T23:58:31.095Z,35.20
